Time;durP1;ratioP1;P1;durP2;ratioP2;P2;SDS_P1;SDS_P2;PMS_P1;PMS_P2;Temp;Humidity;BMP_temperature;BMP_pressure;BME280_temperature;BME280_humidity;BME280_pressure;Samples;Min_cycle;Max_cycle;Signal;HPM_P1;HPM_P2
2022/07/26 00:01:17;;;;;;;6.18;5.65;;;26.40;99.90;;;;;;4993139;28;20220;-83
2022/07/26 00:03:46;;;;;;;8.60;5.65;;;26.30;99.90;;;;;;4992263;28;20208;-87
2022/07/26 00:06:14;;;;;;;7.30;6.70;;;26.40;99.90;;;;;;4993195;28;20212;-76
2022/07/26 00:08:47;;;;;;;6.07;5.57;;;26.40;99.90;;;;;;4993108;28;20208;-76
2022/07/26 00:11:16;;;;;;;5.88;5.30;;;26.30;99.90;;;;;;4992347;28;20228;-76
2022/07/26 00:13:44;;;;;;;7.25;6.38;;;26.30;99.90;;;;;;4992963;28;20267;-76
2022/07/26 00:16:13;;;;;;;5.00;4.60;;;26.30;99.90;;;;;;4993105;28;20295;-76
2022/07/26 00:18:41;;;;;;;5.70;5.30;;;26.30;99.90;;;;;;4992935;28;20216;-76
2022/07/26 00:21:09;;;;;;;6.47;5.88;;;26.30;99.90;;;;;;4992933;28;20307;-76
2022/07/26 00:23:39;;;;;;;6.65;5.80;;;26.30;99.90;;;;;;4993172;28;20216;-76
2022/07/26 00:26:08;;;;;;;8.75;6.68;;;26.30;99.90;;;;;;4993720;28;20295;-76
2022/07/26 00:28:37;;;;;;;10.13;5.57;;;26.30;99.90;;;;;;4993116;28;20242;-76
2022/07/26 00:31:05;;;;;;;6.78;6.22;;;26.40;99.90;;;;;;4992689;28;20244;-76
2022/07/26 00:33:34;;;;;;;6.40;5.45;;;26.40;99.90;;;;;;4992901;28;20235;-76
2022/07/26 00:36:02;;;;;;;7.95;5.05;;;26.40;99.90;;;;;;4994733;28;20263;-76
2022/07/26 00:38:30;;;;;;;5.40;5.00;;;26.40;99.90;;;;;;4994794;28;20291;-76
2022/07/26 00:40:58;;;;;;;5.28;4.88;;;26.30;99.90;;;;;;4994880;28;20266;-76
2022/07/26 00:43:28;;;;;;;7.15;6.18;;;26.40;99.90;;;;;;4994711;28;20203;-76
2022/07/26 00:45:59;;;;;;;5.70;5.25;;;26.30;99.90;;;;;;4994788;28;20211;-76
2022/07/26 00:48:28;;;;;;;6.03;5.53;;;26.30;99.90;;;;;;4994304;28;20200;-76
2022/07/26 00:50:56;;;;;;;6.57;5.97;;;26.30;99.90;;;;;;4994285;28;20252;-76
2022/07/26 00:53:24;;;;;;;6.38;5.75;;;26.30;99.90;;;;;;4994557;28;20290;-76
2022/07/26 00:55:53;;;;;;;8.10;6.43;;;26.30;99.90;;;;;;4994390;28;20263;-76
2022/07/26 00:58:21;;;;;;;11.55;6.28;;;26.30;99.90;;;;;;4994278;28;20235;-76
2022/07/26 01:00:51;;;;;;;6.20;5.60;;;26.30;99.90;;;;;;4994660;28;20227;-90
2022/07/26 01:03:19;;;;;;;8.10;5.70;;;26.10;99.90;;;;;;4994612;28;20222;-90
2022/07/26 01:05:49;;;;;;;4.78;4.05;;;25.90;99.90;;;;;;4994534;28;20228;-93
2022/07/26 01:08:18;;;;;;;6.03;5.53;;;25.80;99.90;;;;;;4994582;28;20215;-93
2022/07/26 01:10:46;;;;;;;4.97;4.20;;;25.80;99.90;;;;;;4994702;28;20247;-92
2022/07/26 01:13:19;;;;;;;5.57;4.95;;;25.90;99.90;;;;;;5002008;28;20227;-92
2022/07/26 01:15:48;;;;;;;9.00;4.35;;;26.00;99.90;;;;;;5001334;28;20212;-91
2022/07/26 01:18:18;;;;;;;6.72;4.55;;;26.00;99.90;;;;;;4996051;28;20275;-89
2022/07/26 01:20:48;;;;;;;8.60;4.85;;;25.90;99.90;;;;;;4993818;28;20282;-92
2022/07/26 01:23:30;;;;;;;17.45;5.15;;;25.70;99.90;;;;;;4994134;28;20214;-92
2022/07/26 01:26:01;;;;;;;4.28;3.67;;;25.60;99.90;;;;;;4994431;28;20204;-91
2022/07/26 01:28:31;;;;;;;4.25;3.55;;;24.90;99.90;;;;;;4993836;28;20223;-92
2022/07/26 01:30:59;;;;;;;4.63;3.75;;;24.40;99.90;;;;;;4993626;28;20318;-92
2022/07/26 01:33:27;;;;;;;4.97;4.05;;;23.80;99.90;;;;;;4993776;28;20214;-91
2022/07/26 01:35:56;;;;;;;4.93;3.83;;;23.40;99.90;;;;;;4995581;28;20204;-91
2022/07/26 01:38:26;;;;;;;5.28;3.85;;;23.00;99.90;;;;;;4995646;28;20465;-91
2022/07/26 01:40:54;;;;;;;5.20;3.55;;;22.80;99.90;;;;;;4992968;28;20244;-91
2022/07/26 01:43:23;;;;;;;4.10;3.70;;;22.60;99.90;;;;;;4993729;28;20299;-91
2022/07/26 01:45:51;;;;;;;3.70;3.35;;;22.50;99.90;;;;;;4994112;28;20203;-91
2022/07/26 01:48:20;;;;;;;3.88;3.47;;;22.50;99.90;;;;;;4993651;28;20221;-92
2022/07/26 01:50:48;;;;;;;5.68;4.25;;;22.50;99.90;;;;;;4993783;28;20231;-91
2022/07/26 01:53:17;;;;;;;6.35;3.05;;;22.50;99.90;;;;;;4993553;28;20234;-92
2022/07/26 01:55:46;;;;;;;3.63;3.33;;;22.50;99.90;;;;;;4994061;28;20231;-91
2022/07/26 01:58:15;;;;;;;4.10;3.70;;;22.50;99.90;;;;;;4994195;28;20262;-92
2022/07/26 02:00:43;;;;;;;3.55;3.25;;;22.50;99.90;;;;;;4993702;28;20199;-92
2022/07/26 02:03:11;;;;;;;3.03;2.83;;;22.50;99.90;;;;;;4994343;28;20298;-92
2022/07/26 02:05:40;;;;;;;5.28;3.78;;;22.50;99.90;;;;;;4993271;28;20224;-91
2022/07/26 02:08:08;;;;;;;3.72;3.42;;;22.40;99.90;;;;;;4994019;28;20203;-91
2022/07/26 02:13:25;;;;;;;4.03;3.70;;;22.30;99.90;;;;;;4993839;28;20203;-92
2022/07/26 02:15:53;;;;;;;3.38;2.80;;;22.30;99.90;;;;;;4993644;28;20238;-91
2022/07/26 02:18:22;;;;;;;3.05;2.72;;;22.20;99.90;;;;;;4993504;28;20208;-92
2022/07/26 02:20:50;;;;;;;4.10;3.33;;;22.10;99.90;;;;;;4993728;28;20236;-91
2022/07/26 02:23:18;;;;;;;4.00;3.17;;;22.00;99.90;;;;;;4993533;28;20228;-91
2022/07/26 02:25:47;;;;;;;2.58;2.38;;;21.90;99.90;;;;;;4993716;28;20238;-91
2022/07/26 02:28:17;;;;;;;3.00;2.70;;;21.70;99.90;;;;;;4997420;28;20239;-91
2022/07/26 02:30:47;;;;;;;5.05;3.13;;;21.60;99.90;;;;;;4997208;28;20224;-91
2022/07/26 02:33:16;;;;;;;5.70;4.10;;;21.50;99.90;;;;;;4997563;28;20219;-92
2022/07/26 02:35:45;;;;;;;2.90;2.70;;;21.40;99.90;;;;;;4997448;28;20207;-91
2022/07/26 02:38:15;;;;;;;5.72;4.32;;;21.30;99.90;;;;;;4997538;28;20303;-92
2022/07/26 02:40:44;;;;;;;4.13;3.83;;;21.10;99.90;;;;;;4997207;28;20206;-91
2022/07/26 02:43:12;;;;;;;3.08;2.78;;;21.00;99.90;;;;;;4996820;28;20231;-91
2022/07/26 02:45:40;;;;;;;3.30;3.10;;;20.90;99.90;;;;;;4997223;28;20223;-91
2022/07/26 02:48:10;;;;;;;3.75;3.22;;;20.70;99.90;;;;;;4996589;28;20224;-92
2022/07/26 02:50:40;;;;;;;3.08;2.88;;;20.70;99.90;;;;;;4996825;28;20219;-92
2022/07/26 02:53:08;;;;;;;3.20;2.90;;;20.60;99.90;;;;;;4996878;28;20240;-91
2022/07/26 02:55:36;;;;;;;2.90;2.70;;;20.60;99.90;;;;;;4997099;28;20211;-92
2022/07/26 02:58:05;;;;;;;6.85;3.85;;;20.60;99.90;;;;;;4996924;28;20203;-92
2022/07/26 03:00:33;;;;;;;2.50;2.33;;;20.50;99.90;;;;;;4996953;28;20200;-92
2022/07/26 03:03:01;;;;;;;3.28;3.05;;;20.50;99.90;;;;;;4996793;28;20280;-92
2022/07/26 03:05:31;;;;;;;4.03;3.20;;;20.50;99.90;;;;;;4997110;28;20271;-92
2022/07/26 03:08:00;;;;;;;2.97;2.78;;;20.40;99.90;;;;;;5007016;28;20208;-91
2022/07/26 03:10:31;;;;;;;3.17;2.97;;;20.40;99.90;;;;;;4997119;28;20314;-92
2022/07/26 03:12:59;;;;;;;5.03;3.35;;;20.40;99.90;;;;;;4996791;28;20226;-91
2022/07/26 03:15:27;;;;;;;3.53;3.13;;;20.40;99.90;;;;;;4996414;28;20239;-92
2022/07/26 03:18:02;;;;;;;3.35;3.05;;;20.40;99.90;;;;;;4996329;28;20204;-91
2022/07/26 03:20:45;;;;;;;3.88;2.95;;;20.40;99.90;;;;;;4996490;28;20198;-91
2022/07/26 03:23:15;;;;;;;3.00;2.80;;;20.40;99.90;;;;;;4996527;28;20203;-92
2022/07/26 03:25:43;;;;;;;3.47;3.17;;;20.40;99.90;;;;;;4996504;28;20243;-91
2022/07/26 03:28:12;;;;;;;3.90;3.30;;;20.40;99.90;;;;;;4996057;28;20231;-92
2022/07/26 03:30:46;;;;;;;2.60;2.40;;;20.50;99.90;;;;;;4995984;28;20234;-92
2022/07/26 03:33:15;;;;;;;3.85;3.17;;;20.50;99.90;;;;;;4996178;28;20219;-92
2022/07/26 03:35:45;;;;;;;2.65;2.45;;;20.60;99.90;;;;;;4996191;28;20207;-92
2022/07/26 03:38:14;;;;;;;3.67;2.97;;;20.60;99.90;;;;;;4996601;28;20283;-92
2022/07/26 03:40:42;;;;;;;3.20;3.00;;;20.60;99.90;;;;;;4995575;28;20231;-91
2022/07/26 03:43:11;;;;;;;3.05;2.85;;;20.50;99.90;;;;;;4995548;28;20212;-93
2022/07/26 03:45:39;;;;;;;2.20;2.10;;;20.50;99.90;;;;;;4995643;28;20231;-93
2022/07/26 03:48:07;;;;;;;5.65;2.50;;;20.50;99.90;;;;;;4995803;28;20274;-93
2022/07/26 03:50:36;;;;;;;2.63;2.53;;;20.40;99.90;;;;;;4995449;28;20211;-93
2022/07/26 03:53:06;;;;;;;6.72;3.50;;;20.50;99.90;;;;;;4995637;28;20242;-93
2022/07/26 03:58:20;;;;;;;3.50;3.20;;;20.50;99.90;;;;;;4995896;28;20295;-93
2022/07/26 04:00:49;;;;;;;3.47;3.17;;;20.40;99.90;;;;;;4995746;28;20255;-93
2022/07/26 04:03:17;;;;;;;3.47;3.25;;;20.40;99.90;;;;;;4995780;28;20216;-93
2022/07/26 04:05:45;;;;;;;3.10;2.80;;;20.40;99.90;;;;;;4995830;28;20299;-92
2022/07/26 04:08:17;;;;;;;3.85;3.55;;;20.50;99.90;;;;;;4995519;28;20235;-93
2022/07/26 04:10:46;;;;;;;6.15;3.45;;;20.40;99.90;;;;;;4995504;28;20238;-93
2022/07/26 04:13:14;;;;;;;2.90;2.65;;;20.40;99.90;;;;;;4995752;28;20276;-93
2022/07/26 04:15:43;;;;;;;4.28;3.88;;;20.40;99.90;;;;;;4995768;28;20211;-93
2022/07/26 04:18:12;;;;;;;3.47;3.13;;;20.40;99.90;;;;;;4995616;28;20208;-93
2022/07/26 04:20:41;;;;;;;3.63;3.30;;;20.40;99.90;;;;;;4995142;28;20212;-93
2022/07/26 04:23:10;;;;;;;5.32;3.45;;;20.40;99.90;;;;;;4995613;28;20231;-93
2022/07/26 04:25:41;;;;;;;3.10;2.90;;;20.40;99.90;;;;;;4995260;28;20212;-93
2022/07/26 04:28:10;;;;;;;3.60;3.17;;;20.40;99.90;;;;;;4995123;28;20207;-93
2022/07/26 04:30:39;;;;;;;3.03;2.83;;;20.40;99.90;;;;;;4995058;28;20283;-93
2022/07/26 04:33:07;;;;;;;3.20;3.00;;;20.50;99.90;;;;;;4994862;28;20430;-93
2022/07/26 04:35:36;;;;;;;3.35;3.05;;;20.40;99.90;;;;;;4999089;28;20204;-93
2022/07/26 04:38:04;;;;;;;3.22;3.03;;;20.50;99.90;;;;;;5001916;28;20226;-93
2022/07/26 04:40:33;;;;;;;10.45;2.58;;;20.50;99.90;;;;;;4995105;28;20277;-93
2022/07/26 04:43:09;;;;;;;2.88;2.67;;;20.40;99.90;;;;;;5088852;22;20252;-86
2022/07/26 04:45:43;;;;;;;3.67;3.35;;;20.40;99.90;;;;;;5073990;28;20269;-86
2022/07/26 04:48:11;;;;;;;3.60;3.08;;;20.40;99.90;;;;;;5073072;28;20209;-86
2022/07/26 04:50:40;;;;;;;2.95;2.75;;;20.30;99.90;;;;;;5073454;28;20318;-86
2022/07/26 04:53:09;;;;;;;3.10;2.88;;;20.30;99.90;;;;;;5073431;28;20224;-86
2022/07/26 04:55:38;;;;;;;3.42;3.17;;;20.30;99.90;;;;;;5073618;28;20236;-86
2022/07/26 04:58:09;;;;;;;3.05;2.65;;;20.30;99.90;;;;;;5073669;28;20243;-86
2022/07/26 05:00:38;;;;;;;3.10;2.90;;;20.30;99.90;;;;;;5073812;28;20284;-86
2022/07/26 05:03:26;;;;;;;3.22;3.03;;;20.30;99.90;;;;;;5073481;28;20197;-86
2022/07/26 05:05:55;;;;;;;3.10;2.90;;;20.40;99.90;;;;;;5073527;28;20201;-86
2022/07/26 05:08:23;;;;;;;3.00;2.80;;;20.40;99.90;;;;;;5073553;28;20201;-86
2022/07/26 05:10:51;;;;;;;3.17;2.95;;;20.40;99.90;;;;;;5073916;28;20292;-86
2022/07/26 05:13:24;;;;;;;3.60;3.30;;;20.30;99.90;;;;;;5073421;28;20225;-86
2022/07/26 05:15:58;;;;;;;3.65;3.38;;;20.30;99.90;;;;;;5073952;28;20223;-86
2022/07/26 05:18:28;;;;;;;2.90;2.70;;;20.20;99.90;;;;;;5073643;28;20205;-86
2022/07/26 05:20:58;;;;;;;3.40;3.10;;;20.20;99.90;;;;;;5073322;28;20251;-86
2022/07/26 05:23:27;;;;;;;2.83;2.63;;;20.20;99.90;;;;;;5073874;28;20197;-86
2022/07/26 05:25:55;;;;;;;3.20;2.90;;;20.10;99.90;;;;;;5073774;28;20292;-86
2022/07/26 05:28:25;;;;;;;3.15;2.95;;;20.10;99.90;;;;;;5073284;28;20201;-86
2022/07/26 05:30:53;;;;;;;2.83;2.63;;;20.00;99.90;;;;;;5073624;28;20296;-86
2022/07/26 05:33:22;;;;;;;3.45;3.25;;;20.00;99.90;;;;;;5072809;28;20257;-86
2022/07/26 05:35:50;;;;;;;4.25;3.15;;;20.00;99.90;;;;;;5072746;28;20284;-86
2022/07/26 05:38:19;;;;;;;2.97;2.78;;;19.90;99.90;;;;;;5073310;28;20201;-86
2022/07/26 05:40:58;;;;;;;4.13;3.72;;;20.00;99.90;;;;;;5073238;28;20240;-87
2022/07/26 05:43:27;;;;;;;3.55;3.28;;;20.00;99.90;;;;;;5073486;28;20208;-87
2022/07/26 05:46:12;;;;;;;2.95;2.75;;;20.00;99.90;;;;;;5073442;28;20200;-87
2022/07/26 05:48:40;;;;;;;3.78;3.40;;;20.00;99.90;;;;;;5072036;28;20190;-88
2022/07/26 05:51:09;;;;;;;4.18;3.78;;;20.00;99.90;;;;;;5073116;28;20205;-87
2022/07/26 05:53:38;;;;;;;4.00;3.42;;;20.00;99.90;;;;;;5072806;28;20284;-88
2022/07/26 05:56:07;;;;;;;2.75;2.55;;;20.00;99.90;;;;;;5073399;28;20269;-88
2022/07/26 05:58:37;;;;;;;3.03;2.83;;;20.10;99.90;;;;;;5073155;28;20291;-90
2022/07/26 06:01:06;;;;;;;3.28;2.97;;;20.10;99.90;;;;;;5074077;28;20197;-85
2022/07/26 06:03:34;;;;;;;3.53;3.22;;;20.10;99.90;;;;;;5077313;28;20197;-88
2022/07/26 06:06:03;;;;;;;3.22;3.03;;;20.00;99.90;;;;;;5076882;28;20211;-86
2022/07/26 06:08:31;;;;;;;3.97;3.30;;;20.00;99.90;;;;;;5075720;28;20236;-85
2022/07/26 06:10:59;;;;;;;3.53;3.22;;;20.00;99.90;;;;;;5076368;28;20295;-86
2022/07/26 06:13:27;;;;;;;3.33;3.05;;;19.90;99.90;;;;;;5076300;28;20248;-86
2022/07/26 06:15:57;;;;;;;3.25;2.95;;;19.80;99.90;;;;;;5076340;28;20232;-86
2022/07/26 06:18:25;;;;;;;3.20;3.00;;;19.70;99.90;;;;;;5076252;28;20231;-86
2022/07/26 06:20:54;;;;;;;6.82;3.50;;;19.70;99.90;;;;;;5076137;28;20339;-87
2022/07/26 06:23:29;;;;;;;3.15;2.95;;;19.60;99.90;;;;;;5076298;28;20200;-87
2022/07/26 06:26:02;;;;;;;3.33;3.05;;;19.60;99.90;;;;;;5076031;28;20201;-87
2022/07/26 06:28:31;;;;;;;3.83;3.53;;;19.60;99.90;;;;;;5076167;28;20220;-87
2022/07/26 06:31:01;;;;;;;3.28;2.97;;;19.60;99.90;;;;;;5075917;28;20201;-86
2022/07/26 06:33:29;;;;;;;3.13;2.90;;;19.60;99.90;;;;;;5075663;28;20229;-86
2022/07/26 06:35:58;;;;;;;2.47;2.38;;;19.60;99.90;;;;;;5076000;28;20209;-86
2022/07/26 06:38:26;;;;;;;2.65;2.55;;;19.70;99.90;;;;;;5075451;28;20246;-86
2022/07/26 06:40:54;;;;;;;4.00;3.03;;;19.70;99.90;;;;;;5075518;28;20263;-86
2022/07/26 06:43:25;;;;;;;3.30;3.10;;;19.80;99.90;;;;;;5075829;28;20208;-86
2022/07/26 06:45:53;;;;;;;3.78;3.47;;;19.90;99.90;;;;;;5075641;28;20208;-86
2022/07/26 06:48:23;;;;;;;3.35;3.08;;;19.90;99.90;;;;;;5075405;28;20294;-86
2022/07/26 06:50:52;;;;;;;3.40;3.10;;;19.90;99.90;;;;;;5075517;28;20201;-86
2022/07/26 06:53:20;;;;;;;3.28;2.97;;;19.80;99.90;;;;;;5075033;28;20249;-86
2022/07/26 06:55:49;;;;;;;7.05;3.60;;;19.90;99.90;;;;;;5075281;28;20213;-86
2022/07/26 06:58:17;;;;;;;2.38;2.28;;;19.90;99.90;;;;;;5075717;28;20231;-86
2022/07/26 07:00:45;;;;;;;3.35;3.10;;;19.90;99.90;;;;;;5075720;28;20205;-86
2022/07/26 07:03:14;;;;;;;3.03;2.70;;;19.90;99.90;;;;;;5075609;28;20225;-86
2022/07/26 07:05:44;;;;;;;2.90;2.70;;;19.90;99.90;;;;;;5075575;28;20269;-86
2022/07/26 07:08:17;;;;;;;2.83;2.63;;;20.00;99.90;;;;;;5075029;28;20200;-86
2022/07/26 07:10:47;;;;;;;2.28;2.17;;;20.10;99.90;;;;;;5075659;28;20209;-86
2022/07/26 07:13:18;;;;;;;3.00;2.72;;;20.10;99.90;;;;;;5074863;28;20232;-86
2022/07/26 07:15:46;;;;;;;2.67;2.53;;;20.20;99.90;;;;;;5075839;28;20291;-86
2022/07/26 07:18:14;;;;;;;2.60;2.40;;;20.30;99.90;;;;;;5075654;28;20209;-86
2022/07/26 07:20:44;;;;;;;2.35;2.17;;;20.40;99.90;;;;;;5074986;28;20240;-86
2022/07/26 07:23:12;;;;;;;2.83;2.63;;;20.50;99.90;;;;;;5075283;28;20221;-86
2022/07/26 07:25:41;;;;;;;2.60;2.30;;;20.50;99.90;;;;;;5074870;28;20293;-86
2022/07/26 07:28:12;;;;;;;2.85;2.65;;;20.60;99.90;;;;;;5075207;28;20228;-86
2022/07/26 07:30:40;;;;;;;2.50;2.30;;;20.70;99.90;;;;;;5074429;28;20225;-86
2022/07/26 07:33:11;;;;;;;2.90;2.58;;;20.80;99.90;;;;;;5074518;28;20298;-86
2022/07/26 07:35:52;;;;;;;2.30;2.20;;;20.90;99.90;;;;;;5074478;28;20207;-86
2022/07/26 07:38:21;;;;;;;2.20;2.10;;;21.00;99.90;;;;;;5074392;28;20205;-86
2022/07/26 07:40:50;;;;;;;1.90;1.80;;;20.90;99.90;;;;;;5074969;28;20205;-86
2022/07/26 07:43:18;;;;;;;2.50;2.30;;;20.90;99.90;;;;;;5074638;28;20233;-85
2022/07/26 07:45:46;;;;;;;3.20;2.78;;;20.90;99.90;;;;;;5074693;28;20201;-85
2022/07/26 07:48:15;;;;;;;2.88;2.38;;;20.80;99.90;;;;;;5074540;28;20215;-86
2022/07/26 07:50:44;;;;;;;3.17;2.97;;;20.70;99.90;;;;;;5074443;28;20206;-86
2022/07/26 07:53:14;;;;;;;1.95;1.85;;;20.60;99.90;;;;;;5074597;28;20228;-86
2022/07/26 07:55:42;;;;;;;2.65;2.50;;;20.50;99.90;;;;;;5074512;28;20197;-86
2022/07/26 07:58:15;;;;;;;2.83;2.63;;;20.40;99.90;;;;;;5074329;28;20209;-86
2022/07/26 08:00:46;;;;;;;3.45;3.15;;;20.30;99.90;;;;;;5074423;28;20205;-86
2022/07/26 08:03:15;;;;;;;3.20;2.90;;;20.30;99.90;;;;;;5074270;28;20232;-86
2022/07/26 08:05:46;;;;;;;3.22;3.03;;;20.20;99.90;;;;;;5074460;28;20231;-86
2022/07/26 08:08:18;;;;;;;3.17;2.97;;;20.20;99.90;;;;;;5074353;28;20213;-86
2022/07/26 08:10:50;;;;;;;3.10;2.90;;;20.20;99.90;;;;;;5074376;28;20293;-86
2022/07/26 08:13:20;;;;;;;11.02;2.92;;;20.20;99.90;;;;;;5073871;28;20225;-86
2022/07/26 08:15:49;;;;;;;2.70;2.50;;;20.20;99.90;;;;;;5074183;28;20204;-86
2022/07/26 08:18:18;;;;;;;2.75;2.55;;;20.20;99.90;;;;;;5073976;28;20247;-86
2022/07/26 08:20:50;;;;;;;2.75;2.55;;;20.30;99.90;;;;;;5074143;28;20229;-86
2022/07/26 08:23:20;;;;;;;2.40;2.30;;;20.30;99.90;;;;;;5073468;28;20213;-86
2022/07/26 08:25:49;;;;;;;3.38;2.97;;;20.40;99.90;;;;;;5073861;28;20265;-86
2022/07/26 08:28:26;;;;;;;3.03;2.70;;;20.40;99.90;;;;;;5073654;28;20208;-86
2022/07/26 08:31:15;;;;;;;2.97;2.78;;;20.50;99.90;;;;;;5073467;28;20254;-86
2022/07/26 08:33:43;;;;;;;3.05;2.80;;;20.50;99.90;;;;;;5073710;28;20224;-86
2022/07/26 08:36:14;;;;;;;3.13;2.88;;;20.50;99.90;;;;;;5073854;28;20208;-86
2022/07/26 08:38:44;;;;;;;3.00;2.75;;;20.60;99.90;;;;;;5073349;28;20231;-86
2022/07/26 08:41:15;;;;;;;2.40;2.30;;;20.60;99.90;;;;;;5073453;28;20208;-86
2022/07/26 08:43:43;;;;;;;3.03;2.83;;;20.70;99.90;;;;;;5073568;28;20235;-86
2022/07/26 08:46:22;;;;;;;3.35;3.03;;;20.70;99.90;;;;;;5073630;28;20213;-86
2022/07/26 08:48:54;;;;;;;2.90;2.55;;;20.70;99.90;;;;;;5072993;28;20211;-86
2022/07/26 08:51:25;;;;;;;3.03;2.83;;;20.80;99.90;;;;;;5073348;28;20225;-86
2022/07/26 08:53:57;;;;;;;2.47;2.38;;;20.90;99.90;;;;;;5073059;28;20220;-86
2022/07/26 08:56:33;;;;;;;3.22;2.78;;;20.90;99.90;;;;;;5073255;28;20335;-86
2022/07/26 08:59:04;;;;;;;2.85;2.65;;;20.90;99.90;;;;;;5073049;28;20228;-86
2022/07/26 09:01:33;;;;;;;2.45;2.25;;;20.90;99.90;;;;;;5073232;28;20278;-86
2022/07/26 09:04:20;;;;;;;2.20;2.10;;;20.90;99.90;;;;;;5073180;28;20199;-86
2022/07/26 09:07:03;;;;;;;3.42;3.15;;;20.80;99.90;;;;;;5073014;28;20204;-86
2022/07/26 09:09:35;;;;;;;3.00;2.80;;;20.80;99.90;;;;;;5072586;28;20288;-86
2022/07/26 09:12:16;;;;;;;3.03;2.70;;;20.90;99.90;;;;;;5073111;28;20259;-86
2022/07/26 09:14:46;;;;;;;10.90;3.30;;;20.90;99.90;;;;;;5072920;28;20307;-86
2022/07/26 09:17:16;;;;;;;2.85;2.65;;;21.00;99.90;;;;;;5073461;28;20213;-86
2022/07/26 09:19:45;;;;;;;2.70;2.50;;;21.00;99.90;;;;;;5072813;28;20284;-86
2022/07/26 09:22:16;;;;;;;2.85;2.63;;;21.10;99.90;;;;;;5072715;28;20252;-86
2022/07/26 09:24:47;;;;;;;3.35;3.13;;;21.20;99.90;;;;;;5072893;28;20225;-86
2022/07/26 09:27:17;;;;;;;5.43;3.15;;;21.20;99.90;;;;;;5072956;28;20295;-86
2022/07/26 09:29:48;;;;;;;3.03;2.83;;;21.40;99.90;;;;;;5072918;28;20236;-86
2022/07/26 09:32:18;;;;;;;3.22;2.88;;;21.40;99.90;;;;;;5073062;28;20282;-86
2022/07/26 09:34:48;;;;;;;2.92;2.70;;;21.50;99.90;;;;;;5072617;28;20267;-86
2022/07/26 09:37:34;;;;;;;2.55;2.45;;;21.50;99.90;;;;;;5072674;28;20232;-86
2022/07/26 09:40:06;;;;;;;3.40;2.85;;;21.60;99.90;;;;;;5072352;28;20207;-86
2022/07/26 09:42:34;;;;;;;3.65;2.60;;;21.70;99.90;;;;;;5072377;28;20225;-86
2022/07/26 09:45:14;;;;;;;2.80;2.60;;;21.70;99.90;;;;;;5072867;28;20235;-86
2022/07/26 09:47:43;;;;;;;2.80;2.60;;;21.80;99.90;;;;;;5072582;28;20292;-86
2022/07/26 09:50:14;;;;;;;3.80;3.40;;;21.90;99.90;;;;;;5072162;28;20284;-86
2022/07/26 09:52:58;;;;;;;2.70;2.50;;;22.00;99.90;;;;;;5072368;28;20221;-86
2022/07/26 09:55:28;;;;;;;2.75;2.50;;;22.10;99.90;;;;;;5072450;28;20251;-86
2022/07/26 09:58:10;;;;;;;3.22;3.00;;;22.10;99.90;;;;;;5072565;28;20209;-86
2022/07/26 10:00:38;;;;;;;3.35;3.10;;;22.20;99.90;;;;;;5072772;28;20208;-86
2022/07/26 10:03:07;;;;;;;4.30;2.90;;;22.30;99.90;;;;;;5072584;28;20249;-87
2022/07/26 10:05:35;;;;;;;4.97;4.10;;;22.50;99.90;;;;;;5072446;28;20201;-86
2022/07/26 10:08:06;;;;;;;6.72;3.80;;;22.50;99.90;;;;;;5072384;28;20284;-86
2022/07/26 10:10:42;;;;;;;2.92;2.72;;;22.60;99.90;;;;;;5072291;28;20208;-86
2022/07/26 10:13:11;;;;;;;2.85;2.65;;;22.70;99.90;;;;;;5072684;28;20258;-86
2022/07/26 10:15:42;;;;;;;3.65;3.10;;;22.70;99.90;;;;;;5072124;28;20224;-87
2022/07/26 10:18:46;;;;;;;2.60;2.40;;;22.70;99.90;;;;;;5072604;28;20201;-86
2022/07/26 10:21:20;;;;;;;3.40;3.13;;;22.60;99.90;;;;;;5072590;28;20205;-87
2022/07/26 10:23:50;;;;;;;3.88;2.67;;;22.60;99.90;;;;;;5072295;28;20212;-87
2022/07/26 10:26:41;;;;;;;3.00;2.78;;;22.70;99.90;;;;;;5072376;28;20197;-87
2022/07/26 10:29:24;;;;;;;2.80;2.60;;;22.70;99.90;;;;;;5071879;28;20213;-86
2022/07/26 10:32:19;;;;;;;4.00;3.45;;;22.80;99.90;;;;;;5072143;28;20233;-86
2022/07/26 10:34:47;;;;;;;4.10;3.45;;;22.90;99.90;;;;;;5072176;28;20248;-86
2022/07/26 10:37:29;;;;;;;3.40;2.95;;;23.00;99.90;;;;;;5072131;28;20231;-86
2022/07/26 10:40:21;;;;;;;3.25;2.95;;;23.00;99.90;;;;;;5071883;28;20232;-87
2022/07/26 10:42:51;;;;;;;4.35;3.67;;;23.00;99.90;;;;;;5096985;22;20225;-87
2022/07/26 10:45:22;;;;;;;3.55;3.33;;;23.10;99.90;;;;;;5071947;28;20221;-87
2022/07/26 10:48:13;;;;;;;3.28;3.08;;;23.10;99.90;;;;;;5073829;28;20228;-87
2022/07/26 10:50:43;;;;;;;4.18;3.85;;;23.20;99.90;;;;;;5075439;28;20243;-87
2022/07/26 10:53:18;;;;;;;3.70;2.75;;;23.20;99.90;;;;;;5090981;28;20224;-87
2022/07/26 10:55:51;;;;;;;3.60;3.30;;;23.20;99.90;;;;;;5095811;28;20224;-87
2022/07/26 10:58:22;;;;;;;3.30;3.00;;;23.20;99.90;;;;;;5095978;28;20192;-87
2022/07/26 11:00:58;;;;;;;3.92;3.60;;;23.30;99.90;;;;;;5095723;28;20207;-87
2022/07/26 11:03:36;;;;;;;3.60;3.30;;;23.50;99.90;;;;;;5095602;28;20228;-88
2022/07/26 11:06:14;;;;;;;3.45;3.15;;;23.60;99.90;;;;;;5095613;28;20204;-88
2022/07/26 11:08:44;;;;;;;4.00;3.60;;;23.80;99.90;;;;;;5095556;28;20238;-88
2022/07/26 11:11:28;;;;;;;3.88;3.58;;;24.00;99.90;;;;;;5095676;28;20208;-88
2022/07/26 11:14:06;;;;;;;5.68;3.42;;;24.40;99.90;;;;;;5095424;28;20211;-88
2022/07/26 11:16:40;;;;;;;6.25;3.58;;;24.90;99.90;;;;;;5095119;28;20220;-87
2022/07/26 11:19:16;;;;;;;5.45;3.63;;;25.10;99.90;;;;;;5095189;28;20275;-87
2022/07/26 11:21:45;;;;;;;4.18;3.78;;;25.30;99.90;;;;;;5095508;28;20220;-88
2022/07/26 11:24:14;;;;;;;4.50;4.13;;;25.70;99.90;;;;;;5095156;28;20201;-88
2022/07/26 11:26:43;;;;;;;4.00;3.67;;;25.90;99.90;;;;;;5095140;28;20208;-88
2022/07/26 11:29:14;;;;;;;3.50;3.22;;;26.10;99.90;;;;;;5094725;28;20228;-88
2022/07/26 11:31:49;;;;;;;3.55;3.25;;;26.20;99.90;;;;;;5095333;28;20262;-88
2022/07/26 11:34:33;;;;;;;5.20;3.67;;;26.50;99.90;;;;;;5095397;28;20295;-88
2022/07/26 11:37:04;;;;;;;3.92;3.53;;;26.80;99.90;;;;;;5095302;28;20303;-89
2022/07/26 11:39:36;;;;;;;3.47;3.17;;;26.90;99.90;;;;;;5094760;28;20201;-88
2022/07/26 11:42:06;;;;;;;3.65;3.03;;;27.10;99.90;;;;;;5094861;28;20232;-88
2022/07/26 11:44:37;;;;;;;3.25;3.05;;;27.30;99.90;;;;;;5095502;28;20208;-88
2022/07/26 11:47:12;;;;;;;3.72;3.40;;;27.80;99.90;;;;;;5095138;28;20196;-88
2022/07/26 11:49:41;;;;;;;3.97;3.65;;;28.10;99.90;;;;;;5094438;28;20204;-89
2022/07/26 11:52:29;;;;;;;6.75;4.00;;;28.10;99.90;;;;;;5094769;28;20248;-88
2022/07/26 11:54:58;;;;;;;2.80;2.60;;;28.20;99.90;;;;;;5094588;28;20208;-89
2022/07/26 11:57:29;;;;;;;3.30;3.08;;;28.00;99.90;;;;;;5094540;28;20231;-89
2022/07/26 12:00:02;;;;;;;3.35;3.05;;;28.20;99.90;;;;;;5094066;28;20207;-86
2022/07/26 12:02:30;;;;;;;4.70;4.18;;;28.50;99.90;;;;;;5094803;28;20224;-86
2022/07/26 12:05:20;;;;;;;3.40;3.10;;;28.50;99.90;;;;;;5094744;28;20200;-86
2022/07/26 12:07:58;;;;;;;3.97;3.58;;;28.30;99.90;;;;;;5089474;28;20204;-86
2022/07/26 12:10:27;;;;;;;4.85;3.60;;;28.10;99.90;;;;;;5093590;28;20204;-86
2022/07/26 12:13:14;;;;;;;3.40;3.10;;;28.20;99.90;;;;;;5093822;28;20258;-86
2022/07/26 12:15:50;;;;;;;3.45;3.15;;;28.60;99.90;;;;;;5094172;28;20227;-86
2022/07/26 12:18:26;;;;;;;2.85;2.65;;;29.20;99.90;;;;;;5094408;28;20211;-86
2022/07/26 12:21:00;;;;;;;3.10;2.83;;;29.50;99.90;;;;;;5093843;28;20273;-86
2022/07/26 12:23:47;;;;;;;4.45;3.38;;;29.70;99.90;;;;;;5094079;28;20250;-86
2022/07/26 12:26:22;;;;;;;3.17;2.95;;;29.60;99.90;;;;;;5093800;28;20261;-86
2022/07/26 12:28:56;;;;;;;5.72;2.97;;;29.70;99.90;;;;;;5093516;28;20208;-86
2022/07/26 12:31:30;;;;;;;2.72;2.60;;;30.00;99.90;;;;;;5094132;28;20212;-86
2022/07/26 12:34:00;;;;;;;3.35;3.05;;;30.20;99.90;;;;;;5094003;28;20281;-86
2022/07/26 12:36:33;;;;;;;3.70;3.40;;;30.20;99.90;;;;;;5093514;28;20266;-85
2022/07/26 12:39:03;;;;;;;3.70;3.40;;;29.20;99.90;;;;;;5093526;28;20277;-88
2022/07/26 12:41:35;;;;;;;3.00;2.72;;;28.30;99.90;;;;;;5093394;28;20200;-85
2022/07/26 12:44:05;;;;;;;3.28;3.08;;;27.50;99.90;;;;;;5093850;28;20227;-85
2022/07/26 12:46:35;;;;;;;3.40;3.10;;;27.10;99.90;;;;;;5093891;28;20287;-86
2022/07/26 12:49:08;;;;;;;3.35;3.15;;;26.60;99.90;;;;;;5093332;28;20204;-86
2022/07/26 12:51:37;;;;;;;4.20;3.78;;;26.20;99.90;;;;;;5093083;28;20201;-86
2022/07/26 12:54:08;;;;;;;6.95;4.18;;;25.80;99.90;;;;;;5093297;28;20204;-85
2022/07/26 12:56:36;;;;;;;5.55;5.03;;;25.30;99.90;;;;;;5093181;28;20224;-85
2022/07/26 12:59:06;;;;;;;10.43;8.20;;;24.60;99.90;;;;;;5093439;28;20265;-84
2022/07/26 13:01:36;;;;;;;9.73;8.93;;;23.60;99.90;;;;;;5093222;28;20208;-84
2022/07/26 13:04:05;;;;;;;12.27;11.18;;;22.90;99.90;;;;;;5093283;28;20200;-84
2022/07/26 13:06:37;;;;;;;14.07;11.95;;;22.10;99.90;;;;;;5093304;28;20205;-84
2022/07/26 13:09:05;;;;;;;13.30;12.18;;;21.80;99.90;;;;;;5093232;28;20261;-84
2022/07/26 13:11:34;;;;;;;14.32;13.07;;;21.70;99.90;;;;;;5092683;28;20211;-84